Time;durP1;ratioP1;P1;durP2;ratioP2;P2;SDS_P1;SDS_P2;PMS_P1;PMS_P2;Temp;Humidity;BMP_temperature;BMP_pressure;BME280_temperature;BME280_humidity;BME280_pressure;Samples;Min_cycle;Max_cycle;Signal;HPM_P1;HPM_P2
2023/03/30 00:00:32;;;;;;;5.90;2.47;;;;;;;1.12;49.82;100082.34;6080588;23;20002;-92
2023/03/30 00:03:01;;;;;;;4.50;2.67;;;;;;;1.12;49.42;100095.63;6080765;23;20002;-93
2023/03/30 00:05:29;;;;;;;3.40;2.20;;;;;;;1.11;48.54;100085.19;6058674;23;20069;-94
2023/03/30 00:07:55;;;;;;;5.72;1.98;;;;;;;1.19;48.09;100083.22;6057140;23;20357;-92
2023/03/30 00:10:21;;;;;;;3.97;2.58;;;;;;;1.10;48.52;100094.97;6081521;23;19997;-93
2023/03/30 00:12:47;;;;;;;4.10;1.90;;;;;;;1.09;48.03;100060.69;6082600;23;20033;-93
2023/03/30 00:15:14;;;;;;;7.05;2.17;;;;;;;1.09;48.15;100076.59;6083192;23;19986;-93
2023/03/30 00:17:40;;;;;;;3.55;2.15;;;;;;;1.16;47.95;100080.97;6083572;23;20010;-94
2023/03/30 00:20:10;;;;;;;4.18;2.10;;;;;;;1.18;47.53;100076.28;6081741;23;20012;-93
2023/03/30 00:22:42;;;;;;;5.90;2.35;;;;;;;0.95;49.56;100070.34;6084865;23;19998;-93
2023/03/30 00:25:09;;;;;;;5.97;2.90;;;;;;;0.96;49.82;100072.00;6084054;23;20085;-93
2023/03/30 00:27:35;;;;;;;5.93;2.83;;;;;;;0.63;50.45;100059.19;6083419;23;20012;-94
2023/03/30 00:30:02;;;;;;;6.55;2.90;;;;;;;0.64;50.97;100068.78;6081818;23;19998;-93
2023/03/30 00:32:27;;;;;;;3.80;2.72;;;;;;;0.69;50.47;100076.19;6107442;23;20408;-94
2023/03/30 00:34:53;;;;;;;4.43;2.85;;;;;;;0.60;50.55;100081.59;6058924;23;20001;-94
2023/03/30 00:37:18;;;;;;;3.50;2.22;;;;;;;0.55;51.71;100086.63;6082194;23;19990;-93
2023/03/30 00:39:44;;;;;;;5.93;2.72;;;;;;;0.58;51.09;100088.91;6082538;23;20005;-94
2023/03/30 00:42:16;;;;;;;9.00;3.20;;;;;;;0.70;51.13;100089.22;6058789;23;20018;-94
2023/03/30 00:45:05;;;;;;;4.93;3.38;;;;;;;0.70;51.01;100094.53;6084559;23;20021;-93
2023/03/30 00:47:31;;;;;;;4.45;2.30;;;;;;;0.67;50.87;100083.50;6107671;23;20024;-94
2023/03/30 00:49:57;;;;;;;10.93;2.95;;;;;;;0.62;50.85;100085.88;6083536;23;20010;-94
2023/03/30 00:52:23;;;;;;;4.18;2.50;;;;;;;0.86;49.85;100088.19;6059518;23;20326;-94
2023/03/30 00:54:50;;;;;;;4.40;2.45;;;;;;;0.92;50.50;100081.31;6082957;23;20012;-94
2023/03/30 00:57:16;;;;;;;4.93;2.70;;;;;;;0.80;51.22;100097.72;6083011;23;20018;-93
2023/03/30 00:59:41;;;;;;;3.33;2.00;;;;;;;0.77;51.42;100098.09;6059778;23;20002;-93
2023/03/30 01:02:07;;;;;;;2.83;1.98;;;;;;;0.64;51.90;100089.16;6083329;23;20005;-94
2023/03/30 01:04:36;;;;;;;4.40;2.33;;;;;;;0.57;51.12;100089.91;6082694;23;20429;-94
2023/03/30 01:07:03;;;;;;;3.40;2.20;;;;;;;0.53;51.70;100093.13;6059425;23;20006;-94
2023/03/30 01:09:28;;;;;;;4.13;1.75;;;;;;;0.72;51.02;100100.47;6082517;23;20017;-94
2023/03/30 01:11:54;;;;;;;4.97;2.08;;;;;;;0.66;51.65;100087.16;6086850;23;19998;-94
2023/03/30 01:14:19;;;;;;;3.88;2.58;;;;;;;0.64;51.84;100089.16;6090044;23;20006;-94
2023/03/30 01:17:13;;;;;;;5.07;2.72;;;;;;;0.54;53.15;100100.88;6062692;23;20017;-94
2023/03/30 01:20:11;;;;;;;3.75;2.13;;;;;;;0.40;53.23;100107.84;6114431;23;20061;-94
2023/03/30 01:23:11;;;;;;;5.35;2.50;;;;;;;0.30;53.56;100106.47;6132729;23;20426;-95
2023/03/30 01:25:59;;;;;;;4.50;1.90;;;;;;;0.34;52.83;100102.44;6133095;23;20010;-93
2023/03/30 01:28:24;;;;;;;3.28;2.20;;;;;;;0.34;53.56;100108.56;6109515;23;20033;-94
2023/03/30 01:31:16;;;;;;;7.20;2.30;;;;;;;0.33;53.71;100106.94;6108313;23;20006;-93
2023/03/30 01:33:44;;;;;;;3.53;2.15;;;;;;;0.28;53.40;100103.19;6107405;23;20081;-93
2023/03/30 01:36:33;;;;;;;4.05;2.20;;;;;;;0.25;54.02;100103.53;6131909;23;20010;-93
2023/03/30 01:39:37;;;;;;;3.60;2.08;;;;;;;0.36;53.52;100106.56;6092358;23;20441;-94
2023/03/30 01:42:22;;;;;;;3.53;2.25;;;;;;;0.16;53.99;100090.38;6132252;23;20052;-94
2023/03/30 01:45:19;;;;;;;3.65;2.28;;;;;;;0.22;53.85;100106.56;6109127;23;20006;-94
2023/03/30 01:47:50;;;;;;;6.00;2.97;;;;;;;0.18;54.14;100104.25;6133974;23;20033;-93
2023/03/30 01:50:39;;;;;;;2.53;2.03;;;;;;;0.16;54.45;100108.09;6108395;23;20002;-93
2023/03/30 01:53:10;;;;;;;5.18;2.40;;;;;;;-0.01;55.05;100110.09;6108026;23;20013;-93
2023/03/30 01:55:48;;;;;;;2.80;2.20;;;;;;;-0.11;54.84;100107.72;6132124;23;20109;-93
2023/03/30 01:58:37;;;;;;;7.78;2.47;;;;;;;-0.05;54.74;100104.34;6085406;23;20092;-92
2023/03/30 02:01:03;;;;;;;4.05;2.05;;;;;;;0.15;54.19;100106.47;6084351;23;20069;-92
2023/03/30 02:03:30;;;;;;;4.15;2.47;;;;;;;0.07;55.23;100114.50;6085123;23;20021;-94
2023/03/30 02:06:12;;;;;;;4.32;2.67;;;;;;;0.00;55.59;100109.13;6086103;23;19993;-93
2023/03/30 02:08:38;;;;;;;;;;;;;;;-0.06;55.25;100120.44;6088516;23;20016;-92
2023/03/30 02:11:03;;;;;;;5.90;2.22;;;;;;;-0.24;55.86;100102.22;6083918;23;19905;-94
2023/03/30 02:13:29;;;;;;;6.30;2.92;;;;;;;-0.33;56.19;100103.28;6059101;23;20004;-93
2023/03/30 02:15:57;;;;;;;6.28;2.90;;;;;;;-0.27;56.55;100113.16;6084468;23;19998;-93
2023/03/30 02:18:23;;;;;;;4.50;2.67;;;;;;;-0.29;56.14;100105.41;6084480;23;20010;-93
2023/03/30 02:20:49;;;;;;;4.65;2.33;;;;;;;-0.16;56.04;100127.81;6084531;23;20033;-93
2023/03/30 02:23:18;;;;;;;5.05;2.45;;;;;;;-0.36;56.33;100099.19;6083808;23;20009;-92
2023/03/30 02:25:44;;;;;;;5.22;2.88;;;;;;;-0.62;56.91;100084.53;6084748;23;20010;-93
2023/03/30 02:28:09;;;;;;;4.30;2.42;;;;;;;-0.44;57.23;100115.13;6060700;23;20002;-94
2023/03/30 02:30:38;;;;;;;8.20;2.88;;;;;;;-0.66;56.70;100114.97;6085389;23;20002;-90
2023/03/30 02:33:05;;;;;;;3.95;2.42;;;;;;;-0.61;57.10;100128.47;6083771;23;20088;-92
2023/03/30 02:35:33;;;;;;;6.00;3.78;;;;;;;-0.70;57.00;100131.38;6062376;23;20006;-92
2023/03/30 02:38:15;;;;;;;5.65;2.78;;;;;;;-0.66;57.27;100141.44;6109807;23;20006;-91
2023/03/30 02:40:51;;;;;;;4.03;2.90;;;;;;;-0.89;57.40;100103.59;6108386;23;20016;-93
2023/03/30 02:43:55;;;;;;;5.82;3.05;;;;;;;-0.67;57.69;100136.31;6085235;23;20025;-93
2023/03/30 02:46:59;;;;;;;4.10;2.58;;;;;;;-0.53;57.07;100134.72;6107671;23;20009;-92
2023/03/30 02:49:27;;;;;;;5.60;2.40;;;;;;;-0.57;57.41;100141.38;6064356;23;20002;-93
2023/03/30 02:52:09;;;;;;;4.78;2.70;;;;;;;-0.77;57.37;100120.66;6109274;23;20061;-93
2023/03/30 02:54:57;;;;;;;6.05;2.72;;;;;;;-0.47;57.03;100149.88;6083901;23;19998;-93
2023/03/30 02:57:37;;;;;;;6.28;2.65;;;;;;;-0.55;57.08;100156.06;6132192;23;20493;-93
2023/03/30 03:00:32;;;;;;;5.50;2.88;;;;;;;-0.61;56.64;100140.88;6132913;23;20005;-93
2023/03/30 03:03:00;;;;;;;4.57;2.70;;;;;;;-0.59;56.94;100151.31;6067503;23;20418;-94
2023/03/30 03:05:25;;;;;;;7.82;2.72;;;;;;;-0.50;57.01;100158.16;6084131;23;20006;-92
2023/03/30 03:07:52;;;;;;;6.25;3.05;;;;;;;-0.37;56.08;100153.13;6084288;23;19993;-93
2023/03/30 03:10:18;;;;;;;5.57;2.97;;;;;;;-0.41;56.68;100155.28;6083722;23;20520;-93
2023/03/30 03:12:44;;;;;;;5.38;3.30;;;;;;;-0.43;56.72;100151.19;6083753;23;20029;-92
2023/03/30 03:15:11;;;;;;;9.35;4.30;;;;;;;-0.19;56.64;100158.06;6107564;23;20092;-93
2023/03/30 03:17:37;;;;;;;6.07;2.85;;;;;;;-0.07;56.11;100166.41;6107418;23;20001;-93
2023/03/30 03:20:03;;;;;;;5.05;2.97;;;;;;;-0.39;56.88;100156.91;6059117;23;20108;-93
2023/03/30 03:22:30;;;;;;;5.82;3.28;;;;;;;-0.59;56.96;100152.13;6086007;23;20001;-95
2023/03/30 03:24:56;;;;;;;5.20;3.08;;;;;;;-0.52;57.08;100168.94;6084960;23;20001;-94
2023/03/30 03:27:21;;;;;;;14.88;3.83;;;;;;;-0.52;56.70;100154.88;6085974;23;20492;-94
2023/03/30 03:29:48;;;;;;;8.23;3.85;;;;;;;-0.54;57.81;100160.34;6085092;23;20025;-93
2023/03/30 03:32:14;;;;;;;5.00;3.20;;;;;;;-0.57;57.80;100160.69;6061644;23;20357;-93
2023/03/30 03:34:43;;;;;;;8.32;4.07;;;;;;;-0.68;57.28;100156.66;6085751;23;20009;-93
2023/03/30 03:37:09;;;;;;;6.18;3.70;;;;;;;-0.58;58.00;100171.44;6086446;23;20004;-94
2023/03/30 03:39:36;;;;;;;8.13;4.65;;;;;;;-0.60;57.73;100169.00;6084912;23;20060;-93
2023/03/30 03:42:02;;;;;;;7.25;3.53;;;;;;;-0.52;57.09;100166.28;6083665;23;20006;-94
2023/03/30 03:44:27;;;;;;;14.52;5.07;;;;;;;-0.58;57.44;100166.16;6085072;23;20033;-93
2023/03/30 03:46:53;;;;;;;7.38;3.63;;;;;;;-0.96;58.24;100140.44;6086736;23;20006;-94
2023/03/30 03:49:19;;;;;;;6.57;3.97;;;;;;;-0.94;58.54;100133.16;6086711;23;20006;-93
2023/03/30 03:51:44;;;;;;;12.38;4.03;;;;;;;-0.96;57.76;100137.00;6089183;23;20006;-94
2023/03/30 03:54:10;;;;;;;6.93;3.95;;;;;;;-0.89;58.17;100172.31;6067040;23;20009;-92
2023/03/30 03:56:35;;;;;;;5.22;3.38;;;;;;;-0.99;58.25;100174.34;6065606;23;20434;-94
2023/03/30 03:59:02;;;;;;;5.93;4.35;;;;;;;-1.07;58.97;100159.34;6067247;23;20006;-94
2023/03/30 04:01:28;;;;;;;4.95;2.97;;;;;;;-0.95;58.69;100186.22;6067884;23;20005;-94
2023/03/30 04:03:57;;;;;;;8.27;6.22;;;;;;;-1.21;59.59;100155.63;6117357;23;20005;-95
2023/03/30 04:06:23;;;;;;;10.32;5.60;;;;;;;-1.09;59.34;100175.38;6093895;23;20005;-93
2023/03/30 04:08:48;;;;;;;10.75;3.35;;;;;;;-1.02;58.89;100183.44;6112955;23;20049;-93
2023/03/30 04:11:15;;;;;;;15.10;5.10;;;;;;;-1.00;59.57;100193.84;6087955;23;20077;-93
2023/03/30 04:13:40;;;;;;;22.30;5.88;;;;;;;-1.02;59.42;100192.22;6085825;23;20006;-91
2023/03/30 04:16:06;;;;;;;10.15;4.60;;;;;;;-1.01;59.34;100190.38;6090657;23;19998;-91
2023/03/30 04:18:35;;;;;;;7.13;3.88;;;;;;;-0.87;59.19;100194.94;6091083;23;20078;-92
2023/03/30 04:21:03;;;;;;;6.55;4.55;;;;;;;-0.85;57.98;100192.94;6090818;23;20009;-92
2023/03/30 04:23:33;;;;;;;6.38;3.65;;;;;;;-0.98;58.46;100191.84;6090097;23;20018;-92
2023/03/30 04:26:00;;;;;;;8.90;4.63;;;;;;;-1.05;58.99;100178.50;6090124;23;20005;-92
2023/03/30 04:28:28;;;;;;;9.90;4.85;;;;;;;-0.93;58.86;100190.34;6091143;23;20013;-92
2023/03/30 04:31:04;;;;;;;10.02;5.18;;;;;;;-0.77;58.61;100202.63;6091020;23;20005;-93
2023/03/30 04:33:33;;;;;;;6.63;4.75;;;;;;;-0.81;58.75;100180.19;6092176;23;20010;-93
2023/03/30 04:35:59;;;;;;;7.53;4.63;;;;;;;-0.55;58.72;100190.44;6091306;23;20006;-92
2023/03/30 04:38:31;;;;;;;9.35;5.68;;;;;;;-0.74;58.13;100170.56;6062490;23;20057;-93
2023/03/30 04:41:00;;;;;;;10.35;5.97;;;;;;;-0.59;57.91;100197.06;6088570;23;20006;-95
2023/03/30 04:43:26;;;;;;;24.17;6.25;;;;;;;-0.96;58.13;100188.03;6138545;23;20022;-95
2023/03/30 04:45:53;;;;;;;8.68;5.75;;;;;;;-0.71;58.31;100212.50;6060580;23;20078;-92
2023/03/30 04:48:18;;;;;;;11.50;6.28;;;;;;;-0.84;58.15;100197.22;6083744;23;20437;-94
2023/03/30 04:50:45;;;;;;;10.70;5.57;;;;;;;-0.73;58.52;100233.00;6086366;23;20093;-94
2023/03/30 04:53:11;;;;;;;12.52;6.10;;;;;;;-0.72;57.90;100216.16;6085487;23;20418;-95
2023/03/30 04:55:36;;;;;;;10.15;5.50;;;;;;;-0.71;58.17;100198.47;6087369;23;20012;-92
2023/03/30 04:58:02;;;;;;;17.55;5.82;;;;;;;-0.52;57.84;100208.63;6081811;23;20006;-92
2023/03/30 05:00:27;;;;;;;10.52;4.82;;;;;;;-0.57;57.19;100204.84;6090010;23;20009;-93
2023/03/30 05:02:55;;;;;;;18.90;7.03;;;;;;;-0.38;57.75;100254.63;6087937;23;20025;-96
2023/03/30 05:05:25;;;;;;;14.60;6.28;;;;;;;-0.43;57.39;100225.25;6086798;23;19982;-94
2023/03/30 05:07:54;;;;;;;11.70;5.13;;;;;;;-0.44;57.34;100235.00;6088271;23;20080;-96
2023/03/30 05:10:20;;;;;;;12.55;5.88;;;;;;;-0.53;57.24;100227.31;6087903;23;20005;-94
2023/03/30 05:13:39;;;;;;;;;;;;;;;;;;;;;
2023/03/30 05:16:05;;;;;;;10.40;5.88;;;;;;;-0.28;56.74;100235.91;6033279;23;20058;-95
2023/03/30 05:18:31;;;;;;;16.45;7.13;;;;;;;-0.19;56.46;100236.66;6025316;23;20074;-93
2023/03/30 05:20:57;;;;;;;14.20;6.20;;;;;;;-0.28;56.56;100217.38;6029116;23;20015;-96
2023/03/30 05:23:23;;;;;;;6.80;4.80;;;;;;;-0.07;56.36;100246.63;6027601;23;20018;-94
2023/03/30 05:25:49;;;;;;;8.73;5.88;;;;;;;-0.24;56.00;100208.06;6028467;23;20175;-92
2023/03/30 05:28:17;;;;;;;10.85;6.18;;;;;;;-0.11;56.12;100224.19;6005310;23;20002;-94
2023/03/30 05:30:45;;;;;;;10.57;6.00;;;;;;;-0.01;55.55;100218.66;6051054;23;20007;-93
2023/03/30 05:33:11;;;;;;;11.30;5.90;;;;;;;0.37;55.07;100247.75;6026292;23;20085;-91
2023/03/30 05:35:37;;;;;;;12.02;5.95;;;;;;;0.58;54.08;100239.09;6024420;23;20546;-93
2023/03/30 05:38:06;;;;;;;13.73;6.43;;;;;;;0.61;53.99;100230.81;6024106;23;20023;-93
2023/03/30 05:40:31;;;;;;;12.70;5.70;;;;;;;0.86;53.73;100251.75;6025842;23;20085;-94
2023/03/30 05:42:59;;;;;;;20.67;5.60;;;;;;;0.90;53.08;100251.19;6024357;23;20362;-93
2023/03/30 05:45:25;;;;;;;9.48;5.57;;;;;;;1.15;52.62;100257.00;6002631;23;20483;-93
2023/03/30 05:47:53;;;;;;;9.68;5.03;;;;;;;1.25;52.41;100254.09;6061163;23;20006;-94
2023/03/30 05:50:21;;;;;;;15.95;6.90;;;;;;;1.37;52.64;100262.38;6083908;23;20002;-91
2023/03/30 05:52:53;;;;;;;11.30;6.15;;;;;;;1.38;51.29;100246.25;6083770;23;20361;-90
2023/03/30 05:55:18;;;;;;;8.75;5.40;;;;;;;1.37;51.16;100238.47;6087177;23;20002;-94
2023/03/30 05:57:44;;;;;;;14.25;5.68;;;;;;;1.51;50.70;100245.59;6085603;23;20006;-94
2023/03/30 06:00:12;;;;;;;8.07;4.90;;;;;;;1.75;49.17;100248.91;6060835;23;20012;-92
2023/03/30 06:02:42;;;;;;;29.67;8.82;;;;;;;2.07;49.98;100262.69;6093358;23;19998;-95
2023/03/30 06:05:32;;;;;;;16.98;5.53;;;;;;;1.82;48.96;100239.97;6113982;23;20017;-94
2023/03/30 06:07:54;;;;;;;9.57;4.43;;;;;;;2.20;47.49;100260.13;6027822;23;20050;-91
2023/03/30 06:10:27;;;;;;;12.00;7.25;;;;;;;2.38;47.41;100243.72;6024469;23;20118;-90
2023/03/30 06:12:54;;;;;;;13.68;6.28;;;;;;;2.52;46.92;100229.53;6051093;23;20006;-93
2023/03/30 06:15:25;;;;;;;8.70;4.63;;;;;;;2.58;46.95;100270.47;6052488;23;20006;-92
2023/03/30 06:18:03;;;;;;;;;;;;;;;;;;;;;
2023/03/30 06:21:46;;;;;;;14.38;5.20;;;;;;;2.39;46.25;100262.16;6035785;23;20502;-94
2023/03/30 06:24:02;;;;;;;8.38;5.00;;;;;;;2.78;45.36;100282.06;6045121;23;20304;-93
2023/03/30 06:26:48;;;;;;;11.02;4.70;;;;;;;2.87;44.90;100266.75;6029310;23;20009;-92
2023/03/30 06:29:26;;;;;;;7.78;4.82;;;;;;;3.10;44.36;100261.16;6058358;23;20431;-93
2023/03/30 06:32:03;;;;;;;8.18;4.38;;;;;;;3.44;44.57;100286.91;6033643;23;20003;-94
2023/03/30 06:34:32;;;;;;;13.32;6.50;;;;;;;3.29;44.50;100256.94;6029554;23;20042;-94
2023/03/30 06:36:58;;;;;;;11.50;5.88;;;;;;;3.73;44.11;100281.44;6030390;23;20002;-94
2023/03/30 06:40:00;;;;;;;10.73;5.90;;;;;;;3.51;43.38;100257.63;6031063;23;20007;-95
2023/03/30 06:42:40;;;;;;;8.50;5.38;;;;;;;3.77;42.18;100258.72;6050105;23;20094;-94
2023/03/30 06:45:17;;;;;;;11.02;6.05;;;;;;;4.10;42.32;100277.41;6085237;23;20092;-95
2023/03/30 06:48:14;;;;;;;9.77;4.30;;;;;;;4.07;40.95;100253.00;6090751;23;20002;-95
2023/03/30 06:51:03;;;;;;;8.85;4.60;;;;;;;4.42;41.18;100282.94;6091507;23;20080;-93
2023/03/30 06:53:30;;;;;;;11.35;5.25;;;;;;;4.57;41.24;100270.25;6107604;23;19998;-93
2023/03/30 06:55:56;;;;;;;9.77;5.05;;;;;;;4.74;40.45;100264.47;6083862;23;20466;-92
2023/03/30 06:58:22;;;;;;;9.77;4.97;;;;;;;4.87;40.34;100264.44;6086121;23;20080;-95
2023/03/30 07:00:56;;;;;;;8.30;5.35;;;;;;;5.04;40.36;100246.13;6089855;23;20006;-93
2023/03/30 07:07:58;;;;;;;9.35;4.43;;;;;;;5.37;39.05;100288.72;6008855;23;20014;-95
2023/03/30 07:10:30;;;;;;;7.75;4.35;;;;;;;5.25;38.04;100256.53;6133899;23;20021;-95
2023/03/30 07:13:20;;;;;;;9.30;4.73;;;;;;;5.62;37.64;100262.13;6089500;23;20006;-95
2023/03/30 07:15:52;;;;;;;8.90;5.07;;;;;;;5.76;38.00;100256.69;6002177;23;20003;-93
2023/03/30 07:18:24;;;;;;;11.32;5.15;;;;;;;6.18;37.18;100289.94;5993857;23;20075;-91
2023/03/30 07:21:04;;;;;;;8.65;5.32;;;;;;;6.14;37.15;100253.16;5971420;23;20011;-92
2023/03/30 07:23:32;;;;;;;13.55;5.50;;;;;;;6.43;36.61;100265.91;5973989;23;20035;-93
2023/03/30 07:26:02;;;;;;;12.45;5.63;;;;;;;6.68;36.01;100278.41;5969686;23;20034;-91
2023/03/30 07:28:28;;;;;;;7.90;4.97;;;;;;;6.54;36.54;100247.50;5967439;23;20091;-93
2023/03/30 07:31:13;;;;;;;10.15;5.75;;;;;;;6.61;35.97;100245.56;5937858;24;20360;-95
2023/03/30 07:34:13;;;;;;;12.45;5.90;;;;;;;7.04;35.79;100268.81;5892023;24;20206;-94
2023/03/30 07:37:11;;;;;;;11.13;5.60;;;;;;;7.08;35.38;100243.22;5896674;24;20425;-92
2023/03/30 07:47:10;;;;;;;9.02;5.05;;;;;;;7.16;34.34;100272.38;5943646;23;20549;-94
2023/03/30 07:49:38;;;;;;;;;;;;;;;7.32;33.88;100262.09;6018259;23;20019;-95
2023/03/30 07:52:10;;;;;;;7.38;4.35;;;;;;;7.25;34.83;100235.41;6026441;23;19931;-96
2023/03/30 07:57:37;;;;;;;10.00;5.18;;;;;;;7.30;34.06;100222.13;5967354;24;20009;-95
2023/03/30 08:00:09;;;;;;;9.02;5.82;;;;;;;7.42;34.16;100228.38;5991288;23;20454;-95
2023/03/30 08:06:09;;;;;;;9.73;4.60;;;;;;;7.66;32.39;100233.84;6198630;23;20092;-94
2023/03/30 08:08:37;;;;;;;9.82;4.68;;;;;;;7.79;31.73;100216.72;6147254;23;20027;-96
2023/03/30 08:11:34;;;;;;;8.23;4.80;;;;;;;7.78;32.08;100221.28;6144912;23;19997;-96
2023/03/30 08:14:39;;;;;;;9.13;4.32;;;;;;;8.02;31.19;100206.03;6169320;23;20001;-96
2023/03/30 08:17:23;;;;;;;9.63;3.80;;;;;;;8.27;29.64;100221.13;6144041;23;19989;-94
2023/03/30 08:19:51;;;;;;;7.22;3.45;;;;;;;8.28;29.31;100199.44;6173738;23;20083;-94
2023/03/30 08:23:17;;;;;;;;;;;;;;;;;;;;;
2023/03/30 08:26:03;;;;;;;;;;;;;;;;;;;;;
2023/03/30 08:28:29;;;;;;;6.07;4.07;;;;;;;8.67;29.44;100213.22;6055586;23;20019;-94
2023/03/30 08:30:58;;;;;;;6.43;4.15;;;;;;;8.72;28.26;100198.28;6029417;23;20003;-94
2023/03/30 08:34:29;;;;;;;10.68;3.58;;;;;;;8.62;28.81;100182.75;6062428;23;20002;-96
2023/03/30 08:37:38;;;;;;;7.90;3.20;;;;;;;9.06;26.91;100218.06;5986004;23;20144;-95
2023/03/30 08:51:59;;;;;;;4.70;3.03;;;;;;;9.17;26.33;100171.56;6161258;23;20026;-95
2023/03/30 08:54:26;;;;;;;5.82;3.00;;;;;;;9.36;26.30;100174.84;6116220;23;20070;-95
2023/03/30 08:57:03;;;;;;;5.53;3.28;;;;;;;9.57;25.55;100202.91;6122809;23;20437;-96
2023/03/30 08:59:59;;;;;;;6.05;3.03;;;;;;;9.51;25.31;100199.31;6165122;23;20081;-96
2023/03/30 09:02:33;;;;;;;6.18;2.80;;;;;;;9.51;25.13;100190.44;6145727;23;20088;-96
2023/03/30 09:05:10;;;;;;;3.97;2.65;;;;;;;9.64;24.58;100176.69;6119830;23;20001;-94
2023/03/30 09:08:16;;;;;;;6.18;2.60;;;;;;;9.71;24.21;100163.91;6153184;23;20005;-93
2023/03/30 09:11:08;;;;;;;5.25;2.92;;;;;;;9.89;24.75;100167.41;6177899;23;19993;-96
2023/03/30 09:14:35;;;;;;;8.90;3.13;;;;;;;9.83;24.16;100182.66;6173374;23;20004;-95
2023/03/30 09:17:59;;;;;;;4.03;2.50;;;;;;;9.70;24.48;100145.34;6083680;23;20085;-94
2023/03/30 09:20:29;;;;;;;4.03;2.53;;;;;;;9.93;24.65;100149.72;6051521;23;20007;-92
2023/03/30 09:22:57;;;;;;;7.60;2.30;;;;;;;9.90;23.60;100164.50;6051785;23;20081;-94
2023/03/30 09:25:24;;;;;;;4.45;1.70;;;;;;;9.95;23.22;100142.25;6036922;23;20062;-95
2023/03/30 09:28:21;;;;;;;;;;;;;;;;;;;;;
2023/03/30 09:30:50;;;;;;;2.83;2.08;;;;;;;10.12;22.97;100134.94;6040152;23;20052;-94
2023/03/30 09:33:54;;;;;;;3.50;2.20;;;;;;;10.14;22.97;100158.94;6140413;23;20005;-92
2023/03/30 09:36:44;;;;;;;3.70;2.20;;;;;;;10.16;23.54;100153.31;6118839;23;20029;-95
2023/03/30 09:39:23;;;;;;;5.20;2.63;;;;;;;10.11;23.47;100125.28;6141197;23;20002;-95
2023/03/30 09:42:10;;;;;;;3.00;2.25;;;;;;;10.42;23.89;100139.19;6143428;23;20013;-95
2023/03/30 09:44:49;;;;;;;4.32;2.40;;;;;;;10.37;24.50;100117.56;6166229;23;20008;-88
2023/03/30 09:54:51;;;;;;;3.40;2.33;;;;;;;10.55;22.31;100107.59;6039415;23;20031;-89
2023/03/30 09:58:00;;;;;;;4.60;2.85;;;;;;;10.64;22.71;100104.19;6109123;23;20025;-87
2023/03/30 10:00:42;;;;;;;;;;;;;;;;;;;;;
2023/03/30 10:03:19;;;;;;;3.15;2.17;;;;;;;11.10;22.57;100120.91;6114875;23;20104;-88
2023/03/30 10:05:45;;;;;;;6.45;2.50;;;;;;;11.00;21.91;100109.16;6109501;23;20011;-88
2023/03/30 10:08:22;;;;;;;4.10;2.50;;;;;;;11.16;22.67;100112.84;6109386;23;20013;-88
2023/03/30 10:10:55;;;;;;;8.05;4.40;;;;;;;10.95;22.47;100074.91;6087101;23;20067;-94
2023/03/30 10:13:42;;;;;;;4.53;2.20;;;;;;;11.17;21.68;100109.91;6142425;23;20005;-96
2023/03/30 10:16:19;;;;;;;2.75;1.90;;;;;;;10.94;21.09;100069.78;6124029;23;20009;-95
2023/03/30 10:18:45;;;;;;;2.63;1.67;;;;;;;11.26;20.19;100105.69;6124711;23;19988;-96
2023/03/30 10:21:26;;;;;;;2.97;1.67;;;;;;;11.21;21.01;100075.19;6122797;23;19989;-95
2023/03/30 10:29:18;;;;;;;3.53;1.80;;;;;;;11.13;20.67;100073.75;6172307;23;20396;-95
2023/03/30 10:32:09;;;;;;;2.92;2.00;;;;;;;11.35;19.50;100089.88;6128183;23;20013;-96
2023/03/30 10:34:52;;;;;;;5.03;2.28;;;;;;;11.23;19.96;100059.56;6149563;23;20014;-96
2023/03/30 10:37:29;;;;;;;3.05;1.77;;;;;;;11.26;19.38;100073.31;6122436;23;20072;-95
2023/03/30 10:40:07;;;;;;;3.47;1.67;;;;;;;11.13;19.46;100041.41;6150542;23;20100;-96
2023/03/30 10:42:47;;;;;;;4.47;1.60;;;;;;;11.23;18.88;100035.31;6127603;23;20021;-96
2023/03/30 10:45:53;;;;;;;2.08;1.23;;;;;;;11.51;18.21;100063.84;6126317;23;20033;-95
2023/03/30 10:48:54;;;;;;;4.13;2.30;;;;;;;11.43;17.71;100067.00;6095153;23;20002;-95
2023/03/30 10:55:36;;;;;;;2.17;1.40;;;;;;;11.49;18.85;100055.19;6108789;23;20241;-94
2023/03/30 11:05:42;;;;;;;5.20;2.80;;;;;;;11.52;17.66;100042.00;6196693;23;20012;-94
2023/03/30 11:08:33;;;;;;;;;;;;;;;;;;;;;
2023/03/30 11:11:29;;;;;;;4.30;1.42;;;;;;;11.57;17.58;99997.28;6177938;23;20020;-96
2023/03/30 11:14:35;;;;;;;2.00;1.17;;;;;;;11.58;17.37;99990.78;6180375;23;20053;-95
2023/03/30 11:17:22;;;;;;;5.85;3.03;;;;;;;11.78;17.65;99979.31;6186327;23;20009;-96
2023/03/30 11:19:54;;;;;;;1.80;1.33;;;;;;;12.14;16.78;100010.03;6150105;23;20028;-94
2023/03/30 11:22:47;;;;;;;1.85;1.20;;;;;;;12.11;16.84;100010.56;6150530;23;19997;-93
2023/03/30 11:26:07;;;;;;;2.45;1.45;;;;;;;12.19;15.63;100009.25;6197867;23;20001;-93
2023/03/30 11:29:23;;;;;;;1.98;1.40;;;;;;;12.17;15.79;99995.22;6199010;23;20069;-94
2023/03/30 11:32:04;;;;;;;2.35;1.40;;;;;;;12.20;15.91;99990.09;6001949;23;20076;-96
2023/03/30 11:35:03;;;;;;;2.83;1.38;;;;;;;12.28;15.95;99989.56;6023083;23;20040;-96
2023/03/30 11:37:36;;;;;;;1.95;1.40;;;;;;;12.24;16.33;99985.78;6129072;23;20045;-91
2023/03/30 11:40:27;;;;;;;4.75;1.83;;;;;;;12.17;16.73;99969.00;6169647;23;20009;-95
2023/03/30 11:43:07;;;;;;;2.05;1.45;;;;;;;11.98;16.81;99959.75;6179098;23;20016;-94
2023/03/30 11:45:51;;;;;;;5.22;2.97;;;;;;;11.96;16.08;99980.81;6153007;23;20037;-93
2023/03/30 11:48:28;;;;;;;2.25;1.50;;;;;;;11.76;14.03;99954.50;6195204;23;20001;-96
2023/03/30 11:51:59;;;;;;;4.75;1.38;;;;;;;12.16;15.16;99970.09;6122322;23;20027;-93
2023/03/30 11:55:16;;;;;;;4.75;2.05;;;;;;;12.41;15.88;99963.13;6103850;23;20026;-89
2023/03/30 11:58:06;;;;;;;2.78;1.80;;;;;;;12.39;15.82;99955.31;6010830;23;20481;-88
2023/03/30 12:00:32;;;;;;;1.50;1.10;;;;;;;12.55;16.60;99956.16;6098038;23;20022;-90
2023/03/30 12:02:57;;;;;;;2.97;1.40;;;;;;;12.71;16.74;99948.91;6117139;23;20033;-89
2023/03/30 12:05:43;;;;;;;5.68;1.45;;;;;;;12.80;16.21;99946.47;6134570;23;20053;-89
2023/03/30 12:08:33;;;;;;;7.53;1.25;;;;;;;12.93;15.53;99940.56;6156106;23;20009;-90
2023/03/30 12:11:08;;;;;;;3.13;1.45;;;;;;;12.78;15.61;99927.00;6137559;23;20059;-88
2023/03/30 12:13:46;;;;;;;;;;;;;;;;;;;;;
2023/03/30 12:16:36;;;;;;;2.67;1.30;;;;;;;12.69;14.98;99908.63;6117181;23;20017;-87
2023/03/30 12:19:18;;;;;;;1.98;1.17;;;;;;;12.76;14.98;99915.66;6112891;23;20005;-89
2023/03/30 12:22:12;;;;;;;2.35;1.30;;;;;;;12.75;15.38;99909.44;6135441;23;20009;-90
2023/03/30 12:24:43;;;;;;;2.60;1.55;;;;;;;12.97;15.06;99933.53;6138129;23;20001;-90
2023/03/30 12:27:08;;;;;;;3.42;1.50;;;;;;;12.80;15.21;99900.53;6112259;23;19994;-90
2023/03/30 12:29:44;;;;;;;2.85;1.45;;;;;;;12.79;14.49;99913.25;6134615;23;20058;-89
2023/03/30 12:32:27;;;;;;;3.83;1.67;;;;;;;12.71;14.49;99905.66;6136796;23;20001;-88
2023/03/30 12:34:52;;;;;;;;;;;;;;;12.81;13.58;99929.19;6087145;23;20488;-88
2023/03/30 12:37:47;;;;;;;1.77;1.17;;;;;;;12.67;13.74;99918.91;6135066;23;19908;-92
2023/03/30 12:43:28;;;;;;;2.42;1.30;;;;;;;12.58;14.96;99898.91;6161160;23;20027;-93
2023/03/30 12:46:04;;;;;;;4.05;1.35;;;;;;;12.69;14.99;99900.53;6171979;23;20001;-94
2023/03/30 12:51:21;;;;;;;2.97;1.80;;;;;;;12.56;14.93;99863.25;6167881;23;20025;-93
2023/03/30 12:54:08;;;;;;;1.88;1.15;;;;;;;12.41;15.53;99855.13;6142585;23;20005;-92
2023/03/30 12:56:43;;;;;;;3.35;2.00;;;;;;;12.53;16.37;99875.41;6170030;23;20006;-96
2023/03/30 12:59:45;;;;;;;4.10;2.53;;;;;;;12.65;15.84;99871.63;6149326;23;20005;-96
2023/03/30 13:09:17;;;;;;;7.70;2.50;;;;;;;12.71;16.39;99849.72;6086760;23;20061;-94
2023/03/30 13:12:08;;;;;;;5.30;1.67;;;;;;;12.58;17.18;99814.34;6165444;23;20233;-96
2023/03/30 13:14:34;;;;;;;2.38;1.42;;;;;;;12.99;16.13;99839.44;6116158;23;19998;-90
2023/03/30 13:17:00;;;;;;;2.08;1.40;;;;;;;13.01;15.73;99834.59;6160322;23;20001;-87
2023/03/30 13:19:26;;;;;;;3.90;1.60;;;;;;;12.93;16.36;99822.44;6160386;23;20012;-89
2023/03/30 13:22:19;;;;;;;2.83;1.60;;;;;;;12.97;16.70;99838.09;6135033;23;20024;-87
2023/03/30 13:25:25;;;;;;;2.50;1.40;;;;;;;13.01;16.38;99818.38;6109107;23;20009;-87
2023/03/30 13:27:55;;;;;;;6.93;2.88;;;;;;;13.25;16.82;99823.16;6144760;23;19998;-86
2023/03/30 13:30:23;;;;;;;4.32;2.15;;;;;;;13.33;16.91;99793.69;6139655;23;20005;-89